This is the latest recevied weather packets stored in our database for station/object DH4SBM. If no packets are shown the sender has not sent any weather packets the latest 10 day(s).
| Time | Temp. | Humidity | Pressure | Rain* | Wind** | Luminosity | Snow |
|---|---|---|---|---|---|---|---|
| 1787974352 | 15° C | 91% | 1017 hPa | 0 mm | - | 0 W/m² | - |
| 1787973752 | 15° C | 91% | 1017 hPa | 0 mm | - | 0 W/m² | - |
| 1787973152 | 15° C | 91% | 1016.9 hPa | 0 mm | - | 0 W/m² | - |
| 1787972551 | 15.56° C | 90% | 1016.9 hPa | 0 mm | - | 0 W/m² | - |
| 1787971951 | 15.56° C | 89% | 1017 hPa | 0 mm | - | 0 W/m² | - |
| 1787971351 | 16.11° C | 89% | 1017.1 hPa | 0 mm | - | 0 W/m² | - |
| 1787970753 | 16.11° C | 89% | 1017.1 hPa | 0 mm | - | 0 W/m² | - |
| 1787970153 | 16.11° C | 90% | 1017.1 hPa | 0 mm | - | 0 W/m² | - |
| 1787969553 | 16.11° C | 90% | 1017.1 hPa | 0 mm | - | 0 W/m² | - |
| 1787968953 | 16.11° C | 90% | 1017 hPa | 0 mm | - | 0 W/m² | - |
| 1787968352 | 16.11° C | 90% | 1017.1 hPa | 0 mm | - | 0 W/m² | - |
| 1787967752 | 16.11° C | 90% | 1017.1 hPa | 0 mm | - | 0 W/m² | - |
| 1787967152 | 16.67° C | 90% | 1017.2 hPa | 0 mm | - | 0 W/m² | - |
| 1787966552 | 16.67° C | 90% | 1017.1 hPa | 0 mm | - | 0 W/m² | - |
| 1787965952 | 16.67° C | 90% | 1017.1 hPa | 0 mm | - | 0 W/m² | - |
| 1787965352 | 16.67° C | 90% | 1017 hPa | 0 mm | - | 0 W/m² | - |
| 1787964751 | 16.67° C | 89% | 1017.2 hPa | 0 mm | - | 0 W/m² | - |
| 1787964151 | 16.67° C | 89% | 1017.1 hPa | 0 mm | - | 0 W/m² | - |
| 1787963551 | 16.67° C | 89% | 1017.2 hPa | 0.51 mm | - | 0 W/m² | - |
| 1787961153 | 17.22° C | 87% | 1017.1 hPa | 0.51 mm | - | 0 W/m² | - |
| 1787952588 | 18.89° C | 78% | 1016.5 hPa | 0 mm | - | 0 W/m² | - |
| 1787951988 | 19.44° C | 75% | 1016.6 hPa | 0 mm | - | 0 W/m² | - |
| 1787948989 | 20° C | 70% | 1015.1 hPa | 0 mm | - | 0 W/m² | - |
| 1787948388 | 20° C | 70% | 1015.2 hPa | 0 mm | - | 0 W/m² | - |
| 1787945388 | 20.56° C | 67% | 1014.6 hPa | 0 mm | - | 0 W/m² | - |
* Rain latest hour (hover to see other rain measurements)
** Current wind speed in m/s (hover to see current wind gust speed)